sensor_id;sensor_type;location;lat;lon;timestamp;temperature;humidity
4505;DHT22;2265;48.794;9.520;2022-10-22T00:00:41;15.10;98.00
4505;DHT22;2265;48.794;9.520;2022-10-22T00:03:10;15.00;98.00
4505;DHT22;2265;48.794;9.520;2022-10-22T00:05:39;15.10;98.00
4505;DHT22;2265;48.794;9.520;2022-10-22T00:08:06;15.30;98.00
4505;DHT22;2265;48.794;9.520;2022-10-22T00:10:36;15.20;98.00
4505;DHT22;2265;48.794;9.520;2022-10-22T00:13:04;15.20;98.00
4505;DHT22;2265;48.794;9.520;2022-10-22T00:15:31;15.20;98.00
4505;DHT22;2265;48.794;9.520;2022-10-22T00:17:58;15.10;98.00
4505;DHT22;2265;48.794;9.520;2022-10-22T00:20:25;15.20;98.00
4505;DHT22;2265;48.794;9.520;2022-10-22T00:22:52;15.10;98.00
4505;DHT22;2265;48.794;9.520;2022-10-22T00:25:19;15.10;98.00
4505;DHT22;2265;48.794;9.520;2022-10-22T00:27:48;15.10;98.00
4505;DHT22;2265;48.794;9.520;2022-10-22T00:30:15;15.10;98.00
4505;DHT22;2265;48.794;9.520;2022-10-22T00:32:42;15.00;98.00
4505;DHT22;2265;48.794;9.520;2022-10-22T00:35:09;15.10;98.00
4505;DHT22;2265;48.794;9.520;2022-10-22T00:37:36;15.10;98.00
4505;DHT22;2265;48.794;9.520;2022-10-22T00:40:04;15.00;98.00
4505;DHT22;2265;48.794;9.520;2022-10-22T00:42:31;15.00;98.00
4505;DHT22;2265;48.794;9.520;2022-10-22T00:45:20;15.00;98.00
4505;DHT22;2265;48.794;9.520;2022-10-22T00:47:51;15.10;98.00
4505;DHT22;2265;48.794;9.520;2022-10-22T00:50:23;15.00;98.00
4505;DHT22;2265;48.794;9.520;2022-10-22T00:52:50;15.00;98.00
4505;DHT22;2265;48.794;9.520;2022-10-22T00:55:18;15.00;98.00
4505;DHT22;2265;48.794;9.520;2022-10-22T00:57:46;15.00;98.00
4505;DHT22;2265;48.794;9.520;2022-10-22T01:00:16;15.10;98.00
4505;DHT22;2265;48.794;9.520;2022-10-22T01:02:43;15.10;98.00
4505;DHT22;2265;48.794;9.520;2022-10-22T01:05:11;15.10;98.00
4505;DHT22;2265;48.794;9.520;2022-10-22T01:07:42;15.00;98.00
4505;DHT22;2265;48.794;9.520;2022-10-22T01:10:17;15.00;98.00
4505;DHT22;2265;48.794;9.520;2022-10-22T01:12:52;15.00;98.00
4505;DHT22;2265;48.794;9.520;2022-10-22T01:15:28;15.00;98.00
4505;DHT22;2265;48.794;9.520;2022-10-22T01:18:00;14.90;98.00
4505;DHT22;2265;48.794;9.520;2022-10-22T01:20:50;14.90;98.00
4505;DHT22;2265;48.794;9.520;2022-10-22T01:26:15;14.90;98.00
4505;DHT22;2265;48.794;9.520;2022-10-22T01:28:56;14.90;98.00
4505;DHT22;2265;48.794;9.520;2022-10-22T01:31:26;14.80;98.00
4505;DHT22;2265;48.794;9.520;2022-10-22T01:33:56;14.70;98.00
4505;DHT22;2265;48.794;9.520;2022-10-22T01:36:26;14.80;98.00
4505;DHT22;2265;48.794;9.520;2022-10-22T01:38:54;14.80;98.00
4505;DHT22;2265;48.794;9.520;2022-10-22T01:41:22;14.70;98.00
4505;DHT22;2265;48.794;9.520;2022-10-22T01:43:51;14.80;98.00
4505;DHT22;2265;48.794;9.520;2022-10-22T01:48:58;14.80;98.00
4505;DHT22;2265;48.794;9.520;2022-10-22T01:51:43;14.70;98.00
4505;DHT22;2265;48.794;9.520;2022-10-22T01:54:23;14.60;98.00
4505;DHT22;2265;48.794;9.520;2022-10-22T01:56:59;14.60;98.00
4505;DHT22;2265;48.794;9.520;2022-10-22T01:59:45;14.50;98.00
4505;DHT22;2265;48.794;9.520;2022-10-22T02:02:24;14.60;98.00
4505;DHT22;2265;48.794;9.520;2022-10-22T02:04:57;14.50;98.00
4505;DHT22;2265;48.794;9.520;2022-10-22T02:07:31;14.60;98.00
4505;DHT22;2265;48.794;9.520;2022-10-22T02:10:00;14.50;98.00
4505;DHT22;2265;48.794;9.520;2022-10-22T02:12:30;14.40;98.00
4505;DHT22;2265;48.794;9.520;2022-10-22T02:15:00;14.50;98.00
4505;DHT22;2265;48.794;9.520;2022-10-22T02:17:30;14.50;98.00
4505;DHT22;2265;48.794;9.520;2022-10-22T02:20:02;14.50;98.00
4505;DHT22;2265;48.794;9.520;2022-10-22T02:22:31;14.40;98.00
4505;DHT22;2265;48.794;9.520;2022-10-22T02:25:01;14.40;98.00
4505;DHT22;2265;48.794;9.520;2022-10-22T02:27:31;14.20;98.00
4505;DHT22;2265;48.794;9.520;2022-10-22T02:30:04;14.40;98.00
4505;DHT22;2265;48.794;9.520;2022-10-22T02:32:37;14.60;98.00
4505;DHT22;2265;48.794;9.520;2022-10-22T02:35:06;14.70;98.00
4505;DHT22;2265;48.794;9.520;2022-10-22T02:37:35;14.60;98.00
4505;DHT22;2265;48.794;9.520;2022-10-22T02:40:03;14.70;98.00
4505;DHT22;2265;48.794;9.520;2022-10-22T02:42:31;14.70;98.00
4505;DHT22;2265;48.794;9.520;2022-10-22T02:45:04;14.70;98.00
4505;DHT22;2265;48.794;9.520;2022-10-22T02:47:31;14.60;98.00
4505;DHT22;2265;48.794;9.520;2022-10-22T02:49:58;14.40;98.00
4505;DHT22;2265;48.794;9.520;2022-10-22T02:52:25;14.30;98.00
4505;DHT22;2265;48.794;9.520;2022-10-22T02:54:52;14.30;98.00
4505;DHT22;2265;48.794;9.520;2022-10-22T02:57:19;14.20;98.00
4505;DHT22;2265;48.794;9.520;2022-10-22T02:59:46;14.10;98.00
4505;DHT22;2265;48.794;9.520;2022-10-22T03:02:16;14.00;98.00
4505;DHT22;2265;48.794;9.520;2022-10-22T03:04:43;14.10;98.00
4505;DHT22;2265;48.794;9.520;2022-10-22T03:07:10;14.10;98.00
4505;DHT22;2265;48.794;9.520;2022-10-22T03:09:37;14.10;98.00
4505;DHT22;2265;48.794;9.520;2022-10-22T03:12:05;14.10;98.00
4505;DHT22;2265;48.794;9.520;2022-10-22T03:14:33;14.20;98.00
4505;DHT22;2265;48.794;9.520;2022-10-22T03:17:02;14.20;98.00
4505;DHT22;2265;48.794;9.520;2022-10-22T03:19:31;14.20;98.00
4505;DHT22;2265;48.794;9.520;2022-10-22T03:22:00;14.30;98.00
4505;DHT22;2265;48.794;9.520;2022-10-22T03:24:30;14.30;98.00
4505;DHT22;2265;48.794;9.520;2022-10-22T03:27:00;14.40;98.00
4505;DHT22;2265;48.794;9.520;2022-10-22T03:29:29;14.40;98.00
4505;DHT22;2265;48.794;9.520;2022-10-22T03:31:57;14.40;98.00
4505;DHT22;2265;48.794;9.520;2022-10-22T03:34:24;14.30;98.00
4505;DHT22;2265;48.794;9.520;2022-10-22T03:36:56;14.30;98.00
4505;DHT22;2265;48.794;9.520;2022-10-22T03:39:24;14.30;98.00
4505;DHT22;2265;48.794;9.520;2022-10-22T03:41:52;14.30;98.00
4505;DHT22;2265;48.794;9.520;2022-10-22T03:44:19;14.40;98.00
4505;DHT22;2265;48.794;9.520;2022-10-22T03:46:48;14.50;98.00
4505;DHT22;2265;48.794;9.520;2022-10-22T03:49:23;14.40;98.00
4505;DHT22;2265;48.794;9.520;2022-10-22T03:51:50;14.30;98.00
4505;DHT22;2265;48.794;9.520;2022-10-22T03:54:19;14.10;98.00
4505;DHT22;2265;48.794;9.520;2022-10-22T03:56:46;14.10;98.00
4505;DHT22;2265;48.794;9.520;2022-10-22T03:59:15;14.10;98.00
4505;DHT22;2265;48.794;9.520;2022-10-22T04:01:42;14.10;98.00
4505;DHT22;2265;48.794;9.520;2022-10-22T04:04:09;14.00;98.00
4505;DHT22;2265;48.794;9.520;2022-10-22T04:06:37;14.30;98.00
4505;DHT22;2265;48.794;9.520;2022-10-22T04:09:04;14.30;98.00
4505;DHT22;2265;48.794;9.520;2022-10-22T04:11:32;14.30;98.00
4505;DHT22;2265;48.794;9.520;2022-10-22T04:14:00;14.30;98.00
4505;DHT22;2265;48.794;9.520;2022-10-22T04:16:27;14.20;98.00
4505;DHT22;2265;48.794;9.520;2022-10-22T04:18:57;14.10;98.00
4505;DHT22;2265;48.794;9.520;2022-10-22T04:21:30;14.10;98.00
4505;DHT22;2265;48.794;9.520;2022-10-22T04:23:58;14.00;98.00
4505;DHT22;2265;48.794;9.520;2022-10-22T04:26:27;14.00;98.00
4505;DHT22;2265;48.794;9.520;2022-10-22T04:28:56;14.00;98.00
4505;DHT22;2265;48.794;9.520;2022-10-22T04:31:25;13.90;98.00
4505;DHT22;2265;48.794;9.520;2022-10-22T04:33:52;13.80;98.00
4505;DHT22;2265;48.794;9.520;2022-10-22T04:36:20;13.70;98.00
4505;DHT22;2265;48.794;9.520;2022-10-22T04:38:52;13.80;98.00
4505;DHT22;2265;48.794;9.520;2022-10-22T04:41:22;13.70;98.00
4505;DHT22;2265;48.794;9.520;2022-10-22T04:43:49;13.70;98.00
4505;DHT22;2265;48.794;9.520;2022-10-22T04:46:18;13.70;98.00
4505;DHT22;2265;48.794;9.520;2022-10-22T04:48:46;13.70;98.00
4505;DHT22;2265;48.794;9.520;2022-10-22T04:51:14;13.60;98.00
4505;DHT22;2265;48.794;9.520;2022-10-22T04:53:41;13.50;98.00
4505;DHT22;2265;48.794;9.520;2022-10-22T04:56:11;13.50;98.00
4505;DHT22;2265;48.794;9.520;2022-10-22T04:58:42;13.40;98.00
4505;DHT22;2265;48.794;9.520;2022-10-22T05:01:11;13.40;98.00
4505;DHT22;2265;48.794;9.520;2022-10-22T05:03:40;13.30;98.00
4505;DHT22;2265;48.794;9.520;2022-10-22T05:06:07;13.10;98.00
4505;DHT22;2265;48.794;9.520;2022-10-22T05:08:35;13.10;98.00
4505;DHT22;2265;48.794;9.520;2022-10-22T05:11:10;13.00;98.00
4505;DHT22;2265;48.794;9.520;2022-10-22T05:13:37;13.00;98.00
4505;DHT22;2265;48.794;9.520;2022-10-22T05:16:05;13.10;98.00
4505;DHT22;2265;48.794;9.520;2022-10-22T05:18:33;13.20;98.00
4505;DHT22;2265;48.794;9.520;2022-10-22T05:21:03;13.20;98.00
4505;DHT22;2265;48.794;9.520;2022-10-22T05:23:30;13.20;98.00
4505;DHT22;2265;48.794;9.520;2022-10-22T05:26:01;13.20;98.00
4505;DHT22;2265;48.794;9.520;2022-10-22T05:28:28;13.20;98.00
4505;DHT22;2265;48.794;9.520;2022-10-22T05:30:57;13.30;98.00
4505;DHT22;2265;48.794;9.520;2022-10-22T05:33:25;13.40;98.00
4505;DHT22;2265;48.794;9.520;2022-10-22T05:35:53;13.30;98.00
4505;DHT22;2265;48.794;9.520;2022-10-22T05:38:22;13.30;98.00
4505;DHT22;2265;48.794;9.520;2022-10-22T05:40:59;13.20;98.00
4505;DHT22;2265;48.794;9.520;2022-10-22T05:43:26;13.20;98.00
4505;DHT22;2265;48.794;9.520;2022-10-22T05:45:54;13.20;98.00
4505;DHT22;2265;48.794;9.520;2022-10-22T05:48:22;13.20;98.00
4505;DHT22;2265;48.794;9.520;2022-10-22T05:50:49;13.20;98.00
4505;DHT22;2265;48.794;9.520;2022-10-22T05:53:16;13.20;98.00
4505;DHT22;2265;48.794;9.520;2022-10-22T05:55:45;13.20;98.00
4505;DHT22;2265;48.794;9.520;2022-10-22T05:58:13;13.20;98.00
4505;DHT22;2265;48.794;9.520;2022-10-22T06:00:40;13.30;98.00
4505;DHT22;2265;48.794;9.520;2022-10-22T06:03:07;13.40;98.00
4505;DHT22;2265;48.794;9.520;2022-10-22T06:05:35;13.40;98.00
4505;DHT22;2265;48.794;9.520;2022-10-22T06:08:03;13.60;98.00
4505;DHT22;2265;48.794;9.520;2022-10-22T06:10:30;13.60;98.00
4505;DHT22;2265;48.794;9.520;2022-10-22T06:13:00;13.50;98.00
4505;DHT22;2265;48.794;9.520;2022-10-22T06:15:27;13.40;98.00
4505;DHT22;2265;48.794;9.520;2022-10-22T06:17:54;13.40;98.00
4505;DHT22;2265;48.794;9.520;2022-10-22T06:20:21;13.40;98.00
4505;DHT22;2265;48.794;9.520;2022-10-22T06:22:49;13.40;98.00
4505;DHT22;2265;48.794;9.520;2022-10-22T06:25:16;13.40;98.00
4505;DHT22;2265;48.794;9.520;2022-10-22T06:27:48;13.40;98.00
4505;DHT22;2265;48.794;9.520;2022-10-22T06:30:17;13.40;98.00
4505;DHT22;2265;48.794;9.520;2022-10-22T06:32:45;13.40;98.00
4505;DHT22;2265;48.794;9.520;2022-10-22T06:35:12;13.60;98.00
4505;DHT22;2265;48.794;9.520;2022-10-22T06:37:39;13.60;98.00
4505;DHT22;2265;48.794;9.520;2022-10-22T06:40:07;13.60;98.00
4505;DHT22;2265;48.794;9.520;2022-10-22T06:42:35;13.60;98.00
4505;DHT22;2265;48.794;9.520;2022-10-22T06:45:03;13.60;98.00
4505;DHT22;2265;48.794;9.520;2022-10-22T06:47:32;13.60;98.00
4505;DHT22;2265;48.794;9.520;2022-10-22T06:49:59;13.70;98.00
4505;DHT22;2265;48.794;9.520;2022-10-22T06:52:26;13.70;98.00
4505;DHT22;2265;48.794;9.520;2022-10-22T06:54:53;13.70;98.00
4505;DHT22;2265;48.794;9.520;2022-10-22T06:57:20;13.80;98.00
4505;DHT22;2265;48.794;9.520;2022-10-22T06:59:47;14.00;98.00
4505;DHT22;2265;48.794;9.520;2022-10-22T07:02:14;14.10;98.00
4505;DHT22;2265;48.794;9.520;2022-10-22T07:04:43;14.10;98.00
4505;DHT22;2265;48.794;9.520;2022-10-22T07:07:10;14.20;98.00
4505;DHT22;2265;48.794;9.520;2022-10-22T07:09:39;14.30;98.00
4505;DHT22;2265;48.794;9.520;2022-10-22T07:12:10;14.30;98.00
4505;DHT22;2265;48.794;9.520;2022-10-22T07:14:37;14.30;98.00
4505;DHT22;2265;48.794;9.520;2022-10-22T07:17:05;14.20;98.00
4505;DHT22;2265;48.794;9.520;2022-10-22T07:19:32;14.20;98.00
4505;DHT22;2265;48.794;9.520;2022-10-22T07:22:01;14.30;98.00
4505;DHT22;2265;48.794;9.520;2022-10-22T07:24:28;14.30;98.00
4505;DHT22;2265;48.794;9.520;2022-10-22T07:26:55;14.30;98.00
4505;DHT22;2265;48.794;9.520;2022-10-22T07:29:23;14.30;98.00
4505;DHT22;2265;48.794;9.520;2022-10-22T07:31:50;14.50;98.00
4505;DHT22;2265;48.794;9.520;2022-10-22T07:34:17;14.50;98.00
4505;DHT22;2265;48.794;9.520;2022-10-22T07:36:45;14.40;98.00
4505;DHT22;2265;48.794;9.520;2022-10-22T07:39:14;14.40;98.00
4505;DHT22;2265;48.794;9.520;2022-10-22T07:41:41;14.60;98.00
4505;DHT22;2265;48.794;9.520;2022-10-22T07:44:08;14.50;98.00
4505;DHT22;2265;48.794;9.520;2022-10-22T07:46:35;14.90;98.00
4505;DHT22;2265;48.794;9.520;2022-10-22T07:49:02;15.30;98.00
4505;DHT22;2265;48.794;9.520;2022-10-22T07:51:29;15.60;98.00
4505;DHT22;2265;48.794;9.520;2022-10-22T07:53:56;16.00;98.00
4505;DHT22;2265;48.794;9.520;2022-10-22T07:56:25;15.90;98.00
4505;DHT22;2265;48.794;9.520;2022-10-22T07:58:52;15.90;98.00
4505;DHT22;2265;48.794;9.520;2022-10-22T08:01:20;15.90;98.00
4505;DHT22;2265;48.794;9.520;2022-10-22T08:03:47;15.80;98.00
4505;DHT22;2265;48.794;9.520;2022-10-22T08:06:14;15.80;98.00
4505;DHT22;2265;48.794;9.520;2022-10-22T08:08:42;15.60;98.00
4505;DHT22;2265;48.794;9.520;2022-10-22T08:11:11;15.60;98.00
4505;DHT22;2265;48.794;9.520;2022-10-22T08:13:40;15.50;98.00
4505;DHT22;2265;48.794;9.520;2022-10-22T08:16:07;15.30;98.00
4505;DHT22;2265;48.794;9.520;2022-10-22T08:18:34;15.30;98.00
4505;DHT22;2265;48.794;9.520;2022-10-22T08:21:04;15.40;98.00
4505;DHT22;2265;48.794;9.520;2022-10-22T08:23:31;15.40;98.00
4505;DHT22;2265;48.794;9.520;2022-10-22T08:25:59;15.40;98.00
4505;DHT22;2265;48.794;9.520;2022-10-22T08:28:27;15.30;98.00
4505;DHT22;2265;48.794;9.520;2022-10-22T08:30:58;15.30;98.00
4505;DHT22;2265;48.794;9.520;2022-10-22T08:33:25;15.20;98.00
4505;DHT22;2265;48.794;9.520;2022-10-22T08:35:53;15.20;98.00
4505;DHT22;2265;48.794;9.520;2022-10-22T08:38:20;15.30;98.00
4505;DHT22;2265;48.794;9.520;2022-10-22T08:40:50;15.30;98.00
4505;DHT22;2265;48.794;9.520;2022-10-22T08:43:33;15.40;98.00
4505;DHT22;2265;48.794;9.520;2022-10-22T08:46:27;15.50;98.00
4505;DHT22;2265;48.794;9.520;2022-10-22T08:49:00;15.50;98.00
4505;DHT22;2265;48.794;9.520;2022-10-22T08:51:30;15.70;98.00
4505;DHT22;2265;48.794;9.520;2022-10-22T08:54:18;15.80;98.00
4505;DHT22;2265;48.794;9.520;2022-10-22T08:56:58;15.80;98.00
4505;DHT22;2265;48.794;9.520;2022-10-22T08:59:33;15.90;98.00
4505;DHT22;2265;48.794;9.520;2022-10-22T09:02:18;16.00;98.00
4505;DHT22;2265;48.794;9.520;2022-10-22T09:04:53;16.20;98.00
4505;DHT22;2265;48.794;9.520;2022-10-22T09:07:23;16.20;98.00
4505;DHT22;2265;48.794;9.520;2022-10-22T09:09:51;16.40;98.00
4505;DHT22;2265;48.794;9.520;2022-10-22T09:12:22;16.50;98.00
4505;DHT22;2265;48.794;9.520;2022-10-22T09:14:51;16.70;98.00
4505;DHT22;2265;48.794;9.520;2022-10-22T09:17:26;16.70;98.00
4505;DHT22;2265;48.794;9.520;2022-10-22T09:20:03;16.90;98.00
4505;DHT22;2265;48.794;9.520;2022-10-22T09:22:39;17.10;98.00
4505;DHT22;2265;48.794;9.520;2022-10-22T09:25:16;17.20;98.00
4505;DHT22;2265;48.794;9.520;2022-10-22T09:27:44;17.30;98.00
4505;DHT22;2265;48.794;9.520;2022-10-22T09:30:15;17.50;98.00
4505;DHT22;2265;48.794;9.520;2022-10-22T09:32:47;17.60;98.00
4505;DHT22;2265;48.794;9.520;2022-10-22T09:35:21;17.80;98.00
4505;DHT22;2265;48.794;9.520;2022-10-22T09:37:50;18.00;98.00
4505;DHT22;2265;48.794;9.520;2022-10-22T09:40:18;18.00;98.00
4505;DHT22;2265;48.794;9.520;2022-10-22T09:42:45;18.10;98.00
4505;DHT22;2265;48.794;9.520;2022-10-22T09:45:17;18.10;98.00
4505;DHT22;2265;48.794;9.520;2022-10-22T09:47:47;18.30;98.00
4505;DHT22;2265;48.794;9.520;2022-10-22T09:50:25;18.50;98.00
4505;DHT22;2265;48.794;9.520;2022-10-22T09:53:03;18.50;98.00
4505;DHT22;2265;48.794;9.520;2022-10-22T09:55:31;18.60;98.00
4505;DHT22;2265;48.794;9.520;2022-10-22T09:57:59;18.60;98.00
4505;DHT22;2265;48.794;9.520;2022-10-22T10:00:28;18.70;98.00
4505;DHT22;2265;48.794;9.520;2022-10-22T10:02:58;18.90;98.00
4505;DHT22;2265;48.794;9.520;2022-10-22T10:05:28;19.00;98.00
4505;DHT22;2265;48.794;9.520;2022-10-22T10:07:56;19.00;98.00
4505;DHT22;2265;48.794;9.520;2022-10-22T10:10:38;19.10;98.00
4505;DHT22;2265;48.794;9.520;2022-10-22T10:13:35;19.10;98.00
4505;DHT22;2265;48.794;9.520;2022-10-22T10:16:11;19.30;98.00
4505;DHT22;2265;48.794;9.520;2022-10-22T10:18:55;19.20;98.00
4505;DHT22;2265;48.794;9.520;2022-10-22T10:21:29;19.30;98.00
4505;DHT22;2265;48.794;9.520;2022-10-22T10:24:03;19.40;98.00
4505;DHT22;2265;48.794;9.520;2022-10-22T10:26:36;19.40;98.00
4505;DHT22;2265;48.794;9.520;2022-10-22T10:29:17;19.40;98.00
4505;DHT22;2265;48.794;9.520;2022-10-22T10:31:59;19.60;98.00
4505;DHT22;2265;48.794;9.520;2022-10-22T10:34:37;19.60;98.00
4505;DHT22;2265;48.794;9.520;2022-10-22T10:37:15;19.90;98.00
4505;DHT22;2265;48.794;9.520;2022-10-22T10:40:00;20.20;98.00
4505;DHT22;2265;48.794;9.520;2022-10-22T10:42:34;20.40;98.00
4505;DHT22;2265;48.794;9.520;2022-10-22T10:45:12;20.70;98.00
4505;DHT22;2265;48.794;9.520;2022-10-22T10:48:05;20.80;98.00
4505;DHT22;2265;48.794;9.520;2022-10-22T10:50:43;21.00;98.00
4505;DHT22;2265;48.794;9.520;2022-10-22T10:53:19;21.30;98.00
4505;DHT22;2265;48.794;9.520;2022-10-22T10:55:55;21.60;98.00
4505;DHT22;2265;48.794;9.520;2022-10-22T10:58:30;21.60;98.00
4505;DHT22;2265;48.794;9.520;2022-10-22T11:01:11;21.80;98.00
4505;DHT22;2265;48.794;9.520;2022-10-22T11:03:54;22.00;98.00
4505;DHT22;2265;48.794;9.520;2022-10-22T11:06:26;22.30;98.00
4505;DHT22;2265;48.794;9.520;2022-10-22T11:08:58;22.10;98.00
4505;DHT22;2265;48.794;9.520;2022-10-22T11:11:31;22.40;98.00
4505;DHT22;2265;48.794;9.520;2022-10-22T11:14:04;22.50;98.00
4505;DHT22;2265;48.794;9.520;2022-10-22T11:16:41;22.90;98.00
4505;DHT22;2265;48.794;9.520;2022-10-22T11:19:14;23.10;98.00
4505;DHT22;2265;48.794;9.520;2022-10-22T11:21:48;23.30;98.00
4505;DHT22;2265;48.794;9.520;2022-10-22T11:24:22;23.40;98.00
4505;DHT22;2265;48.794;9.520;2022-10-22T11:26:54;23.00;98.00
4505;DHT22;2265;48.794;9.520;2022-10-22T11:29:27;22.40;98.00
4505;DHT22;2265;48.794;9.520;2022-10-22T11:31:56;22.10;98.00
4505;DHT22;2265;48.794;9.520;2022-10-22T11:34:32;22.40;98.00
4505;DHT22;2265;48.794;9.520;2022-10-22T11:37:02;22.70;98.00
4505;DHT22;2265;48.794;9.520;2022-10-22T11:39:37;22.60;98.00
4505;DHT22;2265;48.794;9.520;2022-10-22T11:42:08;23.00;98.00
4505;DHT22;2265;48.794;9.520;2022-10-22T11:44:45;22.80;98.00
4505;DHT22;2265;48.794;9.520;2022-10-22T11:47:18;23.10;98.00
4505;DHT22;2265;48.794;9.520;2022-10-22T11:49:53;23.00;98.00
4505;DHT22;2265;48.794;9.520;2022-10-22T11:52:25;23.30;98.00
4505;DHT22;2265;48.794;9.520;2022-10-22T11:54:56;23.80;98.00
4505;DHT22;2265;48.794;9.520;2022-10-22T11:57:28;23.90;98.00
4505;DHT22;2265;48.794;9.520;2022-10-22T12:00:08;23.50;98.00
4505;DHT22;2265;48.794;9.520;2022-10-22T12:02:41;22.90;98.00
4505;DHT22;2265;48.794;9.520;2022-10-22T12:05:42;22.40;98.00
4505;DHT22;2265;48.794;9.520;2022-10-22T12:08:24;21.90;98.00
4505;DHT22;2265;48.794;9.520;2022-10-22T12:10:59;21.50;98.00
4505;DHT22;2265;48.794;9.520;2022-10-22T12:13:30;21.10;98.00
4505;DHT22;2265;48.794;9.520;2022-10-22T12:16:02;20.90;98.00
4505;DHT22;2265;48.794;9.520;2022-10-22T12:18:38;20.50;98.00
4505;DHT22;2265;48.794;9.520;2022-10-22T12:21:10;20.30;98.00
4505;DHT22;2265;48.794;9.520;2022-10-22T12:23:39;20.60;98.00
4505;DHT22;2265;48.794;9.520;2022-10-22T12:26:21;20.70;98.00
4505;DHT22;2265;48.794;9.520;2022-10-22T12:28:49;21.20;98.00
4505;DHT22;2265;48.794;9.520;2022-10-22T12:31:16;22.00;98.00
4505;DHT22;2265;48.794;9.520;2022-10-22T12:33:43;22.80;98.00
4505;DHT22;2265;48.794;9.520;2022-10-22T12:36:16;23.60;98.00
4505;DHT22;2265;48.794;9.520;2022-10-22T12:38:46;24.40;98.00
4505;DHT22;2265;48.794;9.520;2022-10-22T12:41:13;24.90;98.00
4505;DHT22;2265;48.794;9.520;2022-10-22T12:43:41;25.20;98.00
4505;DHT22;2265;48.794;9.520;2022-10-22T12:46:12;25.70;98.00
4505;DHT22;2265;48.794;9.520;2022-10-22T12:48:42;26.00;96.20
4505;DHT22;2265;48.794;9.520;2022-10-22T12:51:15;26.30;96.90
4505;DHT22;2265;48.794;9.520;2022-10-22T12:53:46;26.40;96.30
4505;DHT22;2265;48.794;9.520;2022-10-22T12:56:16;26.50;94.40
4505;DHT22;2265;48.794;9.520;2022-10-22T12:58:50;25.70;95.70
4505;DHT22;2265;48.794;9.520;2022-10-22T13:01:18;25.40;98.00
4505;DHT22;2265;48.794;9.520;2022-10-22T13:03:47;24.90;98.00
4505;DHT22;2265;48.794;9.520;2022-10-22T13:06:24;24.40;98.00
4505;DHT22;2265;48.794;9.520;2022-10-22T13:09:01;23.60;98.00
4505;DHT22;2265;48.794;9.520;2022-10-22T13:11:31;22.90;98.00
4505;DHT22;2265;48.794;9.520;2022-10-22T13:14:03;22.20;98.00
4505;DHT22;2265;48.794;9.520;2022-10-22T13:16:30;21.60;98.00
4505;DHT22;2265;48.794;9.520;2022-10-22T13:18:58;21.20;98.00
4505;DHT22;2265;48.794;9.520;2022-10-22T13:21:28;21.00;98.00
4505;DHT22;2265;48.794;9.520;2022-10-22T13:23:58;20.90;98.00
4505;DHT22;2265;48.794;9.520;2022-10-22T13:26:31;21.10;98.00
4505;DHT22;2265;48.794;9.520;2022-10-22T13:28:59;21.20;98.00
4505;DHT22;2265;48.794;9.520;2022-10-22T13:31:29;21.20;98.00
4505;DHT22;2265;48.794;9.520;2022-10-22T13:34:00;21.40;98.00
4505;DHT22;2265;48.794;9.520;2022-10-22T13:36:31;21.50;98.00
4505;DHT22;2265;48.794;9.520;2022-10-22T13:39:00;21.70;98.00
4505;DHT22;2265;48.794;9.520;2022-10-22T13:41:28;22.10;98.00
4505;DHT22;2265;48.794;9.520;2022-10-22T13:43:57;22.60;98.00
4505;DHT22;2265;48.794;9.520;2022-10-22T13:46:25;23.00;98.00
4505;DHT22;2265;48.794;9.520;2022-10-22T13:48:54;23.50;98.00
4505;DHT22;2265;48.794;9.520;2022-10-22T13:51:26;23.90;98.00
4505;DHT22;2265;48.794;9.520;2022-10-22T13:53:56;24.30;98.00
4505;DHT22;2265;48.794;9.520;2022-10-22T13:56:25;24.70;98.00
4505;DHT22;2265;48.794;9.520;2022-10-22T13:58:52;25.00;98.00
4505;DHT22;2265;48.794;9.520;2022-10-22T14:01:20;25.30;98.00
4505;DHT22;2265;48.794;9.520;2022-10-22T14:03:50;25.60;98.00
4505;DHT22;2265;48.794;9.520;2022-10-22T14:06:19;25.70;98.00
4505;DHT22;2265;48.794;9.520;2022-10-22T14:08:49;26.10;98.00
4505;DHT22;2265;48.794;9.520;2022-10-22T14:11:20;26.50;98.00
4505;DHT22;2265;48.794;9.520;2022-10-22T14:13:50;26.60;98.00
4505;DHT22;2265;48.794;9.520;2022-10-22T14:16:19;26.80;98.00
4505;DHT22;2265;48.794;9.520;2022-10-22T14:18:47;27.10;96.90
4505;DHT22;2265;48.794;9.520;2022-10-22T14:21:16;27.40;95.30
4505;DHT22;2265;48.794;9.520;2022-10-22T14:23:45;27.50;93.00
4505;DHT22;2265;48.794;9.520;2022-10-22T14:26:26;27.80;93.60
4505;DHT22;2265;48.794;9.520;2022-10-22T14:28:57;27.80;93.60
4505;DHT22;2265;48.794;9.520;2022-10-22T14:31:24;27.30;94.00
4505;DHT22;2265;48.794;9.520;2022-10-22T14:33:52;27.70;93.50
4505;DHT22;2265;48.794;9.520;2022-10-22T14:36:19;27.90;91.60
4505;DHT22;2265;48.794;9.520;2022-10-22T14:38:48;27.80;91.10
4505;DHT22;2265;48.794;9.520;2022-10-22T14:41:18;28.10;89.50
4505;DHT22;2265;48.794;9.520;2022-10-22T14:43:46;28.40;89.70
4505;DHT22;2265;48.794;9.520;2022-10-22T14:46:15;28.60;88.60
4505;DHT22;2265;48.794;9.520;2022-10-22T14:48:44;28.50;89.00
4505;DHT22;2265;48.794;9.520;2022-10-22T14:51:12;28.30;88.60
4505;DHT22;2265;48.794;9.520;2022-10-22T14:53:40;28.70;88.70
4505;DHT22;2265;48.794;9.520;2022-10-22T14:56:10;28.80;87.10
4505;DHT22;2265;48.794;9.520;2022-10-22T14:58:37;28.30;87.90
4505;DHT22;2265;48.794;9.520;2022-10-22T15:01:06;28.10;88.70
4505;DHT22;2265;48.794;9.520;2022-10-22T15:03:35;28.00;88.60
4505;DHT22;2265;48.794;9.520;2022-10-22T15:06:02;28.00;87.80
4505;DHT22;2265;48.794;9.520;2022-10-22T15:08:30;28.10;87.70
4505;DHT22;2265;48.794;9.520;2022-10-22T15:10:59;28.40;87.00
4505;DHT22;2265;48.794;9.520;2022-10-22T15:13:27;28.50;86.00
4505;DHT22;2265;48.794;9.520;2022-10-22T15:15:54;28.70;85.90
4505;DHT22;2265;48.794;9.520;2022-10-22T15:18:22;28.70;85.60
4505;DHT22;2265;48.794;9.520;2022-10-22T15:20:58;29.00;84.40
4505;DHT22;2265;48.794;9.520;2022-10-22T15:23:25;29.10;84.50
4505;DHT22;2265;48.794;9.520;2022-10-22T15:25:53;29.30;84.20
4505;DHT22;2265;48.794;9.520;2022-10-22T15:28:20;29.10;85.40
4505;DHT22;2265;48.794;9.520;2022-10-22T15:30:52;29.50;85.50
4505;DHT22;2265;48.794;9.520;2022-10-22T15:33:19;29.40;86.40
4505;DHT22;2265;48.794;9.520;2022-10-22T15:35:46;29.90;84.60
4505;DHT22;2265;48.794;9.520;2022-10-22T15:38:14;29.00;84.60
4505;DHT22;2265;48.794;9.520;2022-10-22T15:40:41;28.10;86.10
4505;DHT22;2265;48.794;9.520;2022-10-22T15:43:08;26.90;89.10
4505;DHT22;2265;48.794;9.520;2022-10-22T15:45:36;25.90;91.50
4505;DHT22;2265;48.794;9.520;2022-10-22T15:48:06;24.70;94.40
4505;DHT22;2265;48.794;9.520;2022-10-22T15:50:36;23.70;97.40
4505;DHT22;2265;48.794;9.520;2022-10-22T15:53:04;22.70;98.00
4505;DHT22;2265;48.794;9.520;2022-10-22T15:55:33;21.70;98.00
4505;DHT22;2265;48.794;9.520;2022-10-22T15:58:00;21.10;98.00
4505;DHT22;2265;48.794;9.520;2022-10-22T16:00:27;20.40;98.00
4505;DHT22;2265;48.794;9.520;2022-10-22T16:02:54;19.90;98.00
4505;DHT22;2265;48.794;9.520;2022-10-22T16:05:22;19.60;98.00
4505;DHT22;2265;48.794;9.520;2022-10-22T16:07:50;19.30;98.00
4505;DHT22;2265;48.794;9.520;2022-10-22T16:10:20;19.00;98.00
4505;DHT22;2265;48.794;9.520;2022-10-22T16:12:49;18.50;98.00
4505;DHT22;2265;48.794;9.520;2022-10-22T16:15:18;18.40;98.00
4505;DHT22;2265;48.794;9.520;2022-10-22T16:17:45;18.10;98.00
4505;DHT22;2265;48.794;9.520;2022-10-22T16:20:12;18.00;98.00
4505;DHT22;2265;48.794;9.520;2022-10-22T16:22:40;17.90;98.00
4505;DHT22;2265;48.794;9.520;2022-10-22T16:25:08;17.60;98.00
4505;DHT22;2265;48.794;9.520;2022-10-22T16:27:35;17.40;98.00